Time;durP1;ratioP1;P1;durP2;ratioP2;P2;SDS_P1;SDS_P2;PMS_P1;PMS_P2;Temp;Humidity;BMP_temperature;BMP_pressure;BME280_temperature;BME280_humidity;BME280_pressure;Samples;Min_cycle;Max_cycle;Signal;HPM_P1;HPM_P2
2022/11/01 00:02:07;;;;;;;72.00;41.50;;;;;;;9.78;94.09;98668.50;106505;1289;22307;-75
2022/11/01 00:04:33;;;;;;;70.90;40.40;;;;;;;9.75;94.12;98665.67;106650;1310;22629;-76
2022/11/01 00:07:00;;;;;;;71.20;39.60;;;;;;;9.73;94.04;98665.96;106500;1299;138368;-76
2022/11/01 00:09:27;;;;;;;69.60;42.50;;;;;;;9.70;94.15;98663.44;106543;1310;22254;-75
2022/11/01 00:11:55;;;;;;;68.30;40.50;;;;;;;9.68;94.00;98665.19;106352;1311;138529;-75
2022/11/01 00:14:21;;;;;;;68.20;39.50;;;;;;;9.67;94.18;98665.80;106522;1310;22327;-76
2022/11/01 00:16:48;;;;;;;64.10;39.60;;;;;;;9.65;94.21;98665.91;106569;1309;22170;-76
2022/11/01 00:19:14;;;;;;;72.30;40.20;;;;;;;9.62;93.91;98662.86;106478;1295;139041;-76
2022/11/01 00:21:41;;;;;;;80.40;38.10;;;;;;;9.59;93.73;98661.36;106629;1310;22183;-76
2022/11/01 00:24:07;;;;;;;70.90;39.90;;;;;;;9.55;93.72;98657.40;106481;1310;138767;-76
2022/11/01 00:26:35;;;;;;;66.30;39.90;;;;;;;9.51;93.61;98656.88;106499;1311;23156;-75
2022/11/01 00:29:02;;;;;;;74.80;39.40;;;;;;;9.49;93.79;98655.83;106529;1298;21829;-75
2022/11/01 00:31:28;;;;;;;65.20;38.20;;;;;;;9.46;93.70;98656.13;106487;1304;138478;-75
2022/11/01 00:33:54;;;;;;;66.30;39.40;;;;;;;9.43;93.92;98652.75;106558;1311;22164;-75
2022/11/01 00:36:20;;;;;;;64.00;37.40;;;;;;;9.41;94.10;98647.41;106453;1310;138838;-75
2022/11/01 00:38:51;;;;;;;72.10;39.00;;;;;;;9.39;93.94;98644.44;106472;1305;22192;-75
2022/11/01 00:41:20;;;;;;;67.30;38.50;;;;;;;9.37;94.09;98646.61;106473;1312;22120;-75
2022/11/01 00:43:47;;;;;;;68.70;39.20;;;;;;;9.36;94.37;98647.73;106764;1303;139062;-75
2022/11/01 00:46:15;;;;;;;64.90;38.00;;;;;;;9.35;94.50;98647.59;106482;1310;22179;-75
2022/11/01 00:48:41;;;;;;;69.60;39.30;;;;;;;9.35;94.66;98649.45;106326;1301;138457;-75
2022/11/01 00:51:07;;;;;;;74.00;42.30;;;;;;;9.34;94.86;98646.53;106530;1310;22145;-75
2022/11/01 00:53:33;;;;;;;74.00;41.80;;;;;;;9.34;94.97;98644.69;106566;1310;23114;-75
2022/11/01 00:56:09;;;;;;;67.50;38.60;;;;;;;9.34;95.13;98644.89;106449;1310;138280;-76
2022/11/01 00:58:38;;;;;;;68.10;40.60;;;;;;;9.31;94.83;98643.98;106435;1305;22416;-75
2022/11/01 01:01:04;;;;;;;66.40;38.50;;;;;;;9.27;94.81;98639.85;106417;1301;138513;-75
2022/11/01 01:03:30;;;;;;;67.90;38.80;;;;;;;9.25;94.97;98636.91;106528;1311;22940;-75
2022/11/01 01:05:57;;;;;;;70.70;40.20;;;;;;;9.23;95.03;98634.30;106506;1310;138832;-75
2022/11/01 01:08:24;;;;;;;68.70;38.70;;;;;;;9.21;95.03;98629.53;106431;1295;22422;-75
2022/11/01 01:10:50;;;;;;;70.50;38.10;;;;;;;9.20;95.05;98626.50;106567;1310;22279;-76
2022/11/01 01:13:17;;;;;;;78.30;43.20;;;;;;;9.19;95.10;98621.45;106329;1311;138738;-75
2022/11/01 01:15:43;;;;;;;75.70;43.00;;;;;;;9.20;95.85;98613.46;106340;1312;22178;-75
2022/11/01 01:18:10;;;;;;;69.40;41.00;;;;;;;9.23;96.50;98611.78;106322;1307;138805;-75
2022/11/01 01:20:37;;;;;;;71.60;40.70;;;;;;;9.25;96.75;98606.44;106390;1311;22360;-76
2022/11/01 01:23:04;;;;;;;73.90;40.70;;;;;;;9.27;97.05;98597.89;106545;1310;22257;-75
2022/11/01 01:25:30;;;;;;;68.40;41.00;;;;;;;9.30;97.29;98595.45;106259;1306;138362;-76
2022/11/01 01:27:56;;;;;;;75.40;42.20;;;;;;;9.31;97.17;98597.77;106592;1310;22179;-75
2022/11/01 01:30:22;;;;;;;65.10;38.30;;;;;;;9.30;96.56;98606.53;106479;1300;138701;-75
2022/11/01 01:32:49;;;;;;;65.50;37.90;;;;;;;9.25;95.79;98608.20;106501;1310;22258;-75
2022/11/01 01:35:15;;;;;;;64.00;37.30;;;;;;;9.20;95.03;98603.52;106621;1310;22209;-75
2022/11/01 01:37:41;;;;;;;58.30;35.20;;;;;;;9.15;94.75;98595.90;106499;1307;138723;-75
2022/11/01 01:40:07;;;;;;;60.40;34.30;;;;;;;9.10;94.43;98597.67;106579;1290;22236;-75
2022/11/01 01:42:39;;;;;;;61.90;34.10;;;;;;;9.05;94.11;98597.54;106428;1303;138385;-75
2022/11/01 01:45:14;;;;;;;59.80;33.70;;;;;;;9.01;94.02;98597.85;106565;1310;22224;-75
2022/11/01 01:47:43;;;;;;;57.10;34.10;;;;;;;8.97;93.95;98593.77;106434;1310;139223;-75
2022/11/01 01:50:14;;;;;;;58.50;35.10;;;;;;;8.92;93.63;98593.39;106446;1310;22225;-76
2022/11/01 01:52:50;;;;;;;55.20;33.00;;;;;;;8.88;93.52;98593.27;106511;1311;23004;-75
2022/11/01 01:55:26;;;;;;;57.00;31.80;;;;;;;8.83;93.25;98594.35;106392;1310;138468;-75
2022/11/01 01:57:54;;;;;;;51.70;30.90;;;;;;;8.80;93.67;98591.55;106443;1313;22861;-75
2022/11/01 02:00:21;;;;;;;52.70;31.30;;;;;;;8.78;93.59;98598.43;106345;1304;139096;-75
2022/11/01 02:02:47;;;;;;;61.50;33.60;;;;;;;8.75;93.50;98591.36;106570;1310;22208;-76
2022/11/01 02:05:28;;;;;;;54.50;31.40;;;;;;;8.74;93.58;98591.05;106579;1310;23139;-75
2022/11/01 02:07:58;;;;;;;55.60;30.00;;;;;;;8.71;93.53;98586.81;106463;1310;138218;-75
2022/11/01 02:10:26;;;;;;;55.90;32.50;;;;;;;8.70;93.58;98589.05;106421;1299;22163;-75
2022/11/01 02:12:56;;;;;;;51.80;32.50;;;;;;;8.69;93.55;98586.36;106374;1310;138684;-75
2022/11/01 02:15:27;;;;;;;60.30;33.20;;;;;;;8.67;93.46;98581.95;106455;1307;22125;-75
2022/11/01 02:17:55;;;;;;;57.40;31.60;;;;;;;8.64;93.44;98584.00;106339;1309;137279;-75
2022/11/01 02:20:33;;;;;;;57.50;33.90;;;;;;;8.62;93.45;98581.11;106531;1298;22257;-75
2022/11/01 02:23:42;;;;;;;61.10;36.00;;;;;;;8.60;93.58;98587.27;106530;1310;22310;-75
2022/11/01 02:26:11;;;;;;;61.80;35.50;;;;;;;8.60;94.20;98586.05;106550;1310;22158;-75
2022/11/01 02:28:56;;;;;;;66.10;36.60;;;;;;;8.60;94.34;98583.72;106569;1310;22794;-75
2022/11/01 02:31:25;;;;;;;65.50;35.60;;;;;;;8.59;94.24;98580.81;106471;1296;138295;-75
2022/11/01 02:34:07;;;;;;;64.70;35.30;;;;;;;8.59;94.21;98580.26;106626;1310;22189;-75
2022/11/01 02:36:46;;;;;;;67.20;37.00;;;;;;;8.57;94.14;98581.92;106471;1310;138389;-75
2022/11/01 02:39:22;;;;;;;62.50;36.60;;;;;;;8.56;94.25;98583.19;106506;1310;23018;-75
2022/11/01 02:42:00;;;;;;;67.70;37.30;;;;;;;8.56;94.47;98592.04;106334;1298;138918;-75
2022/11/01 02:44:33;;;;;;;57.30;34.30;;;;;;;8.53;94.16;98590.69;106452;1304;22904;-75
2022/11/01 02:47:01;;;;;;;58.50;33.50;;;;;;;8.52;94.41;98589.46;106544;1310;22261;-75
2022/11/01 02:49:31;;;;;;;50.10;29.90;;;;;;;8.47;94.03;98584.93;106429;1310;138271;-75
2022/11/01 02:51:59;;;;;;;50.00;31.10;;;;;;;8.40;93.56;98577.64;106551;1295;22243;-76
2022/11/01 02:54:42;;;;;;;50.40;29.80;;;;;;;8.35;93.51;98578.28;106430;1310;138368;-75
2022/11/01 02:57:29;;;;;;;55.50;31.30;;;;;;;8.32;93.71;98580.24;106565;1310;22260;-75
2022/11/01 03:00:03;;;;;;;56.30;30.50;;;;;;;8.30;93.94;98582.64;106439;1310;138549;-75
2022/11/01 03:02:39;;;;;;;67.90;31.70;;;;;;;8.26;93.64;98581.71;106569;1306;22224;-75
2022/11/01 03:05:25;;;;;;;60.10;32.30;;;;;;;8.25;93.82;98584.49;106523;1310;22334;-75
2022/11/01 03:07:56;;;;;;;81.00;32.80;;;;;;;8.24;93.99;98587.06;106508;1305;138219;-75
2022/11/01 03:10:35;;;;;;;57.00;33.10;;;;;;;8.25;94.27;98583.45;106622;1310;22884;-75
2022/11/01 03:13:08;;;;;;;61.90;33.10;;;;;;;8.25;94.41;98584.45;106649;1303;138510;-75
2022/11/01 03:15:52;;;;;;;54.00;29.40;;;;;;;8.26;94.41;98578.73;106527;1306;22126;-75
2022/11/01 03:19:05;;;;;;;62.40;32.20;;;;;;;8.25;94.50;98568.55;106416;1310;138643;-75
2022/11/01 03:21:47;;;;;;;54.10;33.10;;;;;;;8.26;94.53;98571.17;106424;1298;22838;-75
2022/11/01 03:24:25;;;;;;;54.60;32.40;;;;;;;8.27;94.80;98572.95;106379;1310;138959;-75
2022/11/01 03:27:18;;;;;;;58.30;32.50;;;;;;;8.29;94.97;98571.10;106456;1311;22268;-75
2022/11/01 03:29:55;;;;;;;49.90;30.60;;;;;;;8.31;95.12;98572.70;106355;1310;138363;-75
2022/11/01 03:32:28;;;;;;;58.20;33.30;;;;;;;8.35;95.37;98566.92;106453;1297;22221;-75
2022/11/01 03:34:56;;;;;;;55.00;32.00;;;;;;;8.37;95.36;98564.73;106639;1310;23089;-75
2022/11/01 03:37:27;;;;;;;63.50;33.10;;;;;;;8.41;95.18;98567.68;106519;1309;138338;-75
2022/11/01 03:39:54;;;;;;;108.30;34.50;;;;;;;8.40;94.98;98567.41;106629;1310;22182;-75
2022/11/01 03:42:25;;;;;;;51.00;32.30;;;;;;;8.41;94.94;98573.23;106488;1296;138647;-75
2022/11/01 03:44:57;;;;;;;55.40;32.60;;;;;;;8.42;95.16;98572.38;106572;1310;23090;-75
2022/11/01 03:47:24;;;;;;;57.80;32.50;;;;;;;8.43;95.37;98572.20;106452;1312;23065;-75
2022/11/01 03:50:19;;;;;;;75.30;32.70;;;;;;;8.44;95.14;98576.06;106361;1310;138757;-75
2022/11/01 03:52:46;;;;;;;53.70;30.20;;;;;;;8.44;95.02;98582.42;106508;1298;22368;-75
2022/11/01 03:55:17;;;;;;;80.50;33.20;;;;;;;8.43;95.15;98582.33;106540;1305;138842;-75
2022/11/01 03:57:48;;;;;;;75.80;33.90;;;;;;;8.43;95.16;98588.15;106518;1311;22656;-75
2022/11/01 04:00:17;;;;;;;62.50;30.10;;;;;;;8.41;94.76;98591.73;106441;1301;138616;-75
2022/11/01 04:02:44;;;;;;;55.00;28.90;;;;;;;8.39;94.68;98588.42;106570;1296;22933;-75
2022/11/01 04:05:13;;;;;;;;;;;;;;;8.37;94.52;98583.27;106517;1310;23146;-75
2022/11/01 04:07:39;;;;;;;44.10;25.50;;;;;;;8.33;94.30;98576.20;106407;1310;124083;-75
2022/11/01 04:10:06;;;;;;;47.70;26.70;;;;;;;8.31;94.51;98578.28;106618;1309;22185;-75
2022/11/01 04:12:32;;;;;;;46.60;26.90;;;;;;;8.29;94.34;98580.19;106447;1310;138374;-75
2022/11/01 04:20:34;;;;;;;54.50;26.20;;;;;;;8.27;94.65;98571.15;106538;1308;22168;-75
2022/11/01 04:23:00;;;;;;;49.40;27.90;;;;;;;8.26;94.60;98559.89;106525;1302;22303;-75
2022/11/01 04:25:27;;;;;;;67.70;27.90;;;;;;;8.25;94.62;98557.36;106472;1310;138404;-75
2022/11/01 04:27:56;;;;;;;57.80;29.40;;;;;;;8.23;94.76;98559.92;106406;1305;22072;-75
2022/11/01 04:30:23;;;;;;;50.80;30.00;;;;;;;8.22;94.76;98556.48;106474;1310;138481;-75
2022/11/01 04:32:49;;;;;;;52.10;28.80;;;;;;;8.22;94.78;98552.39;106682;1291;22812;-76
2022/11/01 04:35:19;;;;;;;55.60;29.40;;;;;;;8.24;95.17;98551.04;106526;1310;22286;-75
2022/11/01 04:37:47;;;;;;;50.20;27.90;;;;;;;8.25;95.29;98558.77;106382;1304;138385;-75
2022/11/01 04:40:14;;;;;;;65.80;30.10;;;;;;;8.27;95.44;98552.91;106570;1310;22121;-75
2022/11/01 04:42:40;;;;;;;64.70;31.00;;;;;;;8.28;95.54;98555.98;106429;1287;138536;-75
2022/11/01 04:45:08;;;;;;;52.80;30.80;;;;;;;8.30;95.65;98555.94;106557;1310;22113;-75
2022/11/01 04:47:34;;;;;;;92.00;31.60;;;;;;;8.30;95.61;98559.46;106564;1310;22248;-75
2022/11/01 04:50:00;;;;;;;61.70;29.70;;;;;;;8.31;95.46;98557.70;106456;1304;138016;-75
2022/11/01 04:52:26;;;;;;;55.30;31.20;;;;;;;8.32;95.64;98557.98;106829;1302;22105;-75
2022/11/01 04:54:52;;;;;;;53.50;29.60;;;;;;;8.32;95.83;98549.23;106504;1289;138235;-75
2022/11/01 04:57:24;;;;;;;66.20;30.30;;;;;;;8.33;95.71;98548.00;106589;1310;22332;-75
2022/11/01 04:59:52;;;;;;;49.40;28.10;;;;;;;8.33;95.82;98538.81;106371;1305;138367;-75
2022/11/01 05:02:19;;;;;;;104.80;32.20;;;;;;;8.34;96.05;98536.80;106412;1311;22242;-75
2022/11/01 05:04:45;;;;;;;52.10;29.00;;;;;;;8.35;95.95;98536.07;106599;1294;22817;-75
2022/11/01 05:07:12;;;;;;;52.60;29.40;;;;;;;8.36;95.86;98531.31;106454;1310;138698;-75
2022/11/01 05:09:38;;;;;;;49.50;29.30;;;;;;;8.38;96.14;98529.45;106565;1310;22173;-75
2022/11/01 05:12:05;;;;;;;73.10;31.60;;;;;;;8.39;96.16;98533.17;106429;1310;139154;-75
2022/11/01 05:14:32;;;;;;;51.90;28.60;;;;;;;8.40;96.01;98537.86;106525;1296;22184;-75
2022/11/01 05:16:58;;;;;;;60.30;30.70;;;;;;;8.40;95.97;98542.91;106460;1304;22451;-75
2022/11/01 05:19:24;;;;;;;59.00;29.90;;;;;;;8.39;96.18;98541.91;106339;1305;138340;-75
2022/11/01 05:21:51;;;;;;;66.90;30.40;;;;;;;8.38;96.22;98540.21;106451;1311;22817;-75
2022/11/01 05:24:17;;;;;;;57.70;28.90;;;;;;;8.39;96.16;98537.35;106435;1299;138440;-74
2022/11/01 05:26:43;;;;;;;64.50;30.80;;;;;;;8.38;96.13;98536.03;106504;1307;22294;-75
2022/11/01 05:29:10;;;;;;;73.60;31.10;;;;;;;8.35;95.83;98539.30;106512;1305;22188;-75
2022/11/01 05:31:36;;;;;;;55.90;29.50;;;;;;;8.31;95.79;98541.97;106124;1301;138575;-75
2022/11/01 05:34:03;;;;;;;69.50;31.40;;;;;;;8.27;95.52;98538.05;106555;1295;22180;-75
2022/11/01 05:36:29;;;;;;;60.00;30.00;;;;;;;8.25;95.75;98540.27;106444;1310;139128;-75
2022/11/01 05:38:58;;;;;;;64.30;30.50;;;;;;;8.22;95.57;98535.58;106539;1310;23200;-75
2022/11/01 05:41:25;;;;;;;61.00;30.20;;;;;;;8.19;95.58;98537.44;106561;1310;22798;-75
2022/11/01 05:43:51;;;;;;;55.40;29.90;;;;;;;8.17;95.76;98536.69;106329;1295;139080;-75
2022/11/01 05:46:17;;;;;;;58.10;30.50;;;;;;;8.16;95.72;98530.27;106626;1309;22312;-75
2022/11/01 05:48:43;;;;;;;57.30;30.60;;;;;;;8.15;95.76;98534.53;106488;1304;138667;-75
2022/11/01 05:51:09;;;;;;;60.90;29.80;;;;;;;8.15;96.02;98532.61;106591;1310;22135;-75
2022/11/01 05:53:36;;;;;;;55.30;29.80;;;;;;;8.15;95.73;98532.08;106491;1305;23243;-75
2022/11/01 05:56:13;;;;;;;53.00;28.20;;;;;;;8.15;95.98;98534.90;106356;1298;139277;-75
2022/11/01 05:58:40;;;;;;;59.20;29.60;;;;;;;8.15;96.08;98527.20;106566;1310;22096;-75
2022/11/01 06:01:07;;;;;;;54.80;28.40;;;;;;;8.15;95.85;98529.73;106494;1309;138348;-75
2022/11/01 06:03:36;;;;;;;51.80;27.50;;;;;;;8.14;95.83;98530.12;106591;1301;22104;-75
2022/11/01 06:06:02;;;;;;;;;;;;;;;8.15;95.95;98529.48;106388;1310;138480;-75
2022/11/01 06:08:30;;;;;;;52.70;29.10;;;;;;;8.16;96.16;98527.34;106578;1309;22132;-75
2022/11/01 06:11:02;;;;;;;53.00;28.20;;;;;;;8.19;96.21;98533.05;106444;1312;23182;-75
2022/11/01 06:13:32;;;;;;;49.40;29.30;;;;;;;8.22;96.33;98539.88;106436;1310;138313;-75
2022/11/01 06:16:17;;;;;;;48.40;28.50;;;;;;;8.24;96.17;98542.30;106535;1299;23107;-75
2022/11/01 06:18:43;;;;;;;62.60;29.50;;;;;;;8.25;96.31;98549.89;106414;1305;138566;-75
2022/11/01 06:21:09;;;;;;;57.20;27.00;;;;;;;8.26;96.03;98547.41;106559;1310;22276;-75
2022/11/01 06:23:35;;;;;;;41.80;22.80;;;;;;;8.26;96.10;98547.63;106567;1310;22250;-74
2022/11/01 06:26:03;;;;;;;39.20;22.90;;;;;;;8.26;95.88;98550.71;106431;1288;138192;-74
2022/11/01 06:28:29;;;;;;;40.70;19.80;;;;;;;8.23;95.54;98555.05;106340;1313;22250;-75
2022/11/01 06:30:59;;;;;;;38.70;20.70;;;;;;;8.22;95.60;98550.82;106491;1310;139140;-75
2022/11/01 06:33:25;;;;;;;38.60;20.80;;;;;;;8.21;96.05;98554.65;106621;1310;22108;-74
2022/11/01 06:35:51;;;;;;;38.60;20.80;;;;;;;8.19;95.60;98549.20;106481;1309;138317;-76
2022/11/01 06:38:17;;;;;;;28.50;16.90;;;;;;;8.18;95.68;98550.65;106276;1312;22094;-74
2022/11/01 06:40:45;;;;;;;27.10;15.70;;;;;;;8.15;95.28;98543.84;106556;1304;23150;-75
2022/11/01 06:43:12;;;;;;;25.70;15.30;;;;;;;8.12;95.11;98552.64;106379;1310;138251;-75
2022/11/01 06:45:38;;;;;;;26.20;14.90;;;;;;;8.08;95.15;98554.39;106577;1310;22293;-75
2022/11/01 06:48:05;;;;;;;30.30;16.00;;;;;;;8.06;95.21;98562.25;106486;1296;138435;-75
2022/11/01 06:50:31;;;;;;;29.50;15.80;;;;;;;8.05;95.47;98563.79;106512;1310;22169;-75
2022/11/01 06:52:58;;;;;;;30.30;17.90;;;;;;;8.04;95.46;98563.91;106607;1308;22415;-74
2022/11/01 06:55:26;;;;;;;35.60;18.60;;;;;;;8.04;95.67;98563.62;106233;1311;138422;-75
2022/11/01 06:57:58;;;;;;;32.60;18.60;;;;;;;8.08;95.99;98568.75;106438;1298;22771;-75
2022/11/01 07:00:26;;;;;;;36.50;20.20;;;;;;;8.09;95.76;98569.20;106311;1312;139082;-75
2022/11/01 07:03:00;;;;;;;39.60;21.40;;;;;;;8.12;96.08;98574.09;106444;1312;22289;-75
2022/11/01 07:05:28;;;;;;;29.60;16.70;;;;;;;8.12;96.01;98575.20;106552;1311;22128;-74
2022/11/01 07:07:54;;;;;;;36.70;19.70;;;;;;;8.09;95.85;98575.95;106328;1299;138623;-75
2022/11/01 07:10:21;;;;;;;30.50;19.30;;;;;;;8.08;96.22;98572.45;106582;1312;22089;-75
2022/11/01 07:12:47;;;;;;;30.20;17.00;;;;;;;8.11;96.32;98568.63;106480;1310;138426;-75
2022/11/01 07:15:13;;;;;;;35.40;18.00;;;;;;;8.13;96.70;98563.05;106600;1312;22119;-75
2022/11/01 07:17:39;;;;;;;25.10;14.20;;;;;;;8.16;96.93;98562.72;106461;1294;22838;-75
2022/11/01 07:20:06;;;;;;;26.70;14.50;;;;;;;8.20;96.68;98564.77;106491;1310;137971;-74
2022/11/01 07:22:34;;;;;;;26.20;15.60;;;;;;;8.23;96.88;98559.64;106859;1301;22074;-75
2022/11/01 07:25:00;;;;;;;24.50;14.60;;;;;;;8.27;97.29;98556.40;106512;1304;139162;-75
2022/11/01 07:27:26;;;;;;;28.60;14.90;;;;;;;8.33;97.44;98550.21;106588;1296;22350;-75
2022/11/01 07:29:52;;;;;;;32.70;16.70;;;;;;;8.41;97.81;98547.57;106427;1312;138689;-75
2022/11/01 07:32:18;;;;;;;33.70;15.80;;;;;;;8.50;97.89;98553.23;106544;1310;22139;-75
2022/11/01 07:34:45;;;;;;;38.20;17.90;;;;;;;8.60;98.12;98562.55;106553;1311;22864;-75
2022/11/01 07:37:11;;;;;;;37.70;17.20;;;;;;;8.67;97.89;98566.92;106408;1298;138595;-76
2022/11/01 07:39:39;;;;;;;32.10;17.10;;;;;;;8.73;97.88;98566.70;106397;1311;22867;-75
2022/11/01 07:42:05;;;;;;;36.20;18.00;;;;;;;8.78;97.80;98560.38;106393;1312;139185;-74
2022/11/01 07:44:32;;;;;;;41.30;21.70;;;;;;;8.81;97.63;98556.11;106520;1311;22139;-74
2022/11/01 07:46:58;;;;;;;39.70;19.00;;;;;;;8.84;97.52;98554.73;106503;1311;22367;-75
2022/11/01 07:49:24;;;;;;;41.30;19.90;;;;;;;8.85;97.56;98551.98;106743;1294;138256;-75
2022/11/01 07:51:50;;;;;;;37.60;18.00;;;;;;;8.91;97.78;98549.70;106606;1310;22208;-75
2022/11/01 07:54:19;;;;;;;36.90;17.20;;;;;;;9.01;97.96;98542.62;106496;1310;138913;-75
2022/11/01 07:56:46;;;;;;;36.90;18.00;;;;;;;9.09;97.68;98537.55;106643;1310;23088;-75
2022/11/01 07:59:12;;;;;;;37.80;18.60;;;;;;;9.15;97.46;98537.00;106783;1303;22229;-75
2022/11/01 08:01:38;;;;;;;39.00;17.90;;;;;;;9.17;97.24;98545.95;106449;1307;138380;-75
2022/11/01 08:04:05;;;;;;;37.90;17.90;;;;;;;9.22;97.66;98554.13;106570;1312;22185;-75
2022/11/01 08:06:31;;;;;;;37.00;18.50;;;;;;;9.24;97.21;98557.80;106472;1310;138351;-76
2022/11/01 08:08:57;;;;;;;36.90;18.50;;;;;;;9.26;97.19;98555.66;106557;1296;22431;-75
2022/11/01 08:11:23;;;;;;;42.60;18.00;;;;;;;9.31;97.33;98559.52;106594;1310;22169;-75
2022/11/01 08:13:49;;;;;;;38.20;18.30;;;;;;;9.35;97.36;98563.56;106752;1303;138784;-76
2022/11/01 08:16:37;;;;;;;33.40;17.90;;;;;;;9.37;96.95;98565.40;106589;1310;22820;-75
2022/11/01 08:19:03;;;;;;;38.70;18.50;;;;;;;9.37;96.62;98562.95;106408;1298;138849;-76
2022/11/01 08:21:29;;;;;;;38.70;18.20;;;;;;;9.35;96.51;98555.69;106524;1312;23147;-76
2022/11/01 08:23:56;;;;;;;36.40;17.80;;;;;;;9.39;96.95;98557.94;106438;1311;138633;-78
2022/11/01 08:26:22;;;;;;;41.20;18.60;;;;;;;9.43;97.06;98558.20;106538;1312;22188;-78
2022/11/01 08:28:49;;;;;;;46.80;19.70;;;;;;;9.48;97.27;98557.85;106544;1310;22271;-76
2022/11/01 08:31:15;;;;;;;39.90;19.40;;;;;;;9.56;97.47;98559.77;106448;1311;139110;-76
2022/11/01 08:33:41;;;;;;;45.30;20.90;;;;;;;9.63;97.04;98559.92;106467;1310;22187;-77
2022/11/01 08:36:08;;;;;;;40.70;20.90;;;;;;;9.70;97.22;98559.39;106368;1313;139560;-76
2022/11/01 08:38:34;;;;;;;46.10;21.00;;;;;;;9.79;97.19;98550.07;106566;1298;22191;-78
2022/11/01 08:41:00;;;;;;;44.90;21.20;;;;;;;9.89;97.23;98547.95;106550;1310;22937;-75
2022/11/01 08:43:27;;;;;;;43.40;20.20;;;;;;;10.00;97.31;98540.80;106675;1302;138581;-75
2022/11/01 08:45:53;;;;;;;45.60;21.50;;;;;;;10.11;97.22;98543.56;106452;1312;23121;-75
2022/11/01 08:48:19;;;;;;;43.50;20.80;;;;;;;10.21;97.13;98545.20;106436;1306;138758;-76
2022/11/01 08:50:45;;;;;;;52.20;23.20;;;;;;;10.31;96.82;98543.88;106588;1296;23073;-76
2022/11/01 08:53:13;;;;;;;50.70;22.20;;;;;;;10.37;96.79;98539.58;106433;1313;22936;-76
2022/11/01 08:55:40;;;;;;;43.00;21.30;;;;;;;10.45;96.88;98541.46;106666;1303;139752;-76
2022/11/01 08:58:07;;;;;;;51.40;22.70;;;;;;;10.51;96.06;98541.14;106751;1306;22099;-76
2022/11/01 09:00:34;;;;;;;45.30;20.90;;;;;;;10.54;95.77;98545.51;106416;1302;139121;-76
2022/11/01 09:03:00;;;;;;;45.90;22.20;;;;;;;10.57;95.20;98549.98;106463;1310;23185;-76
2022/11/01 09:05:30;;;;;;;49.40;23.80;;;;;;;10.64;95.17;98550.70;106807;1303;22251;-76
2022/11/01 09:07:57;;;;;;;44.50;22.40;;;;;;;10.70;95.33;98549.40;106514;1310;138884;-75
2022/11/01 09:10:24;;;;;;;49.50;23.70;;;;;;;10.75;94.97;98551.37;106495;1298;22160;-76
2022/11/01 09:12:50;;;;;;;45.50;22.60;;;;;;;10.83;94.91;98553.52;106347;1295;138772;-76
2022/11/01 09:15:17;;;;;;;49.00;23.40;;;;;;;10.89;95.01;98559.08;106432;1312;22108;-76
2022/11/01 09:17:43;;;;;;;43.40;22.60;;;;;;;10.95;95.12;98565.13;106437;1303;139329;-76
2022/11/01 09:20:09;;;;;;;43.00;21.80;;;;;;;11.02;94.80;98567.15;106539;1304;22175;-76
2022/11/01 09:22:36;;;;;;;45.20;23.80;;;;;;;11.10;94.87;98568.66;106581;1310;22149;-76
2022/11/01 09:25:06;;;;;;;44.20;22.90;;;;;;;11.21;94.99;98556.42;106401;1312;138642;-75
2022/11/01 09:27:32;;;;;;;38.40;21.60;;;;;;;11.32;94.63;98551.86;106351;1311;22614;-75
2022/11/01 09:29:58;;;;;;;37.00;23.20;;;;;;;11.43;94.70;98552.09;106441;1295;138976;-76
2022/11/01 09:32:28;;;;;;;34.00;21.30;;;;;;;11.55;94.61;98547.75;106594;1310;22248;-76
2022/11/01 09:34:54;;;;;;;32.90;19.70;;;;;;;11.66;93.55;98546.61;106491;1310;159094;-76
2022/11/01 09:37:20;;;;;;;32.10;19.30;;;;;;;11.76;93.10;98558.92;106491;1307;138773;-77
2022/11/01 09:39:46;;;;;;;31.30;19.10;;;;;;;11.88;93.13;98561.23;106490;1308;22163;-76
2022/11/01 09:42:27;;;;;;;27.50;18.30;;;;;;;12.04;92.43;98557.71;106713;1302;138817;-76
2022/11/01 09:44:56;;;;;;;26.60;16.70;;;;;;;12.20;91.72;98556.89;106402;1312;22111;-76
2022/11/01 09:47:27;;;;;;;29.50;17.50;;;;;;;12.31;91.00;98546.60;106455;1304;22861;-76
2022/11/01 09:50:05;;;;;;;27.90;19.00;;;;;;;12.44;90.91;98540.16;106345;1302;138560;-76
2022/11/01 09:52:31;;;;;;;27.50;17.50;;;;;;;12.55;90.45;98547.71;106473;1312;22074;-76
2022/11/01 09:54:58;;;;;;;28.30;18.40;;;;;;;12.64;89.93;98548.84;106478;1312;139515;-76
2022/11/01 09:57:34;;;;;;;27.80;17.60;;;;;;;12.71;89.51;98543.94;106466;1312;22309;-76
2022/11/01 10:00:12;;;;;;;22.40;16.60;;;;;;;12.84;89.20;98537.35;106469;1307;138922;-77
2022/11/01 10:02:51;;;;;;;27.40;16.40;;;;;;;12.96;88.02;98534.24;106775;1306;23118;-76
2022/11/01 10:05:20;;;;;;;25.40;16.00;;;;;;;13.02;86.94;98533.88;106945;1295;22203;-76
2022/11/01 10:08:10;;;;;;;25.00;16.10;;;;;;;13.09;86.74;98538.14;106560;1310;138651;-76
2022/11/01 10:10:56;;;;;;;22.20;15.20;;;;;;;13.13;86.41;98537.48;106583;1303;22379;-76
2022/11/01 10:13:46;;;;;;;22.20;15.30;;;;;;;13.20;86.26;98536.75;106522;1310;138709;-76
2022/11/01 10:16:15;;;;;;;22.80;13.30;;;;;;;13.32;85.67;98534.31;106651;1303;22289;-76
2022/11/01 10:19:13;;;;;;;21.00;14.70;;;;;;;13.45;85.44;98535.36;106521;1312;137428;-76
2022/11/01 10:22:03;;;;;;;22.00;13.80;;;;;;;13.58;84.39;98541.27;106842;1299;21793;-76
2022/11/01 10:25:11;;;;;;;21.80;13.30;;;;;;;13.66;84.34;98542.17;106333;1307;138868;-76
2022/11/01 10:27:42;;;;;;;17.80;12.90;;;;;;;13.71;83.47;98537.58;106627;1310;22268;-76
2022/11/01 10:30:13;;;;;;;18.10;12.40;;;;;;;13.71;83.00;98539.82;106556;1310;139457;-76
2022/11/01 10:33:00;;;;;;;17.90;12.50;;;;;;;13.69;82.75;98544.11;106576;1296;22243;-76
2022/11/01 10:35:39;;;;;;;18.70;12.10;;;;;;;13.68;82.21;98541.48;106611;1310;22163;-77
2022/11/01 10:38:35;;;;;;;18.10;12.50;;;;;;;13.67;82.53;98547.67;106588;1304;138990;-76
2022/11/01 10:41:39;;;;;;;16.80;12.10;;;;;;;13.66;82.05;98548.64;106667;1312;22235;-76
2022/11/01 10:44:14;;;;;;;18.50;11.60;;;;;;;13.69;81.69;98548.29;106571;1310;137404;-76
2022/11/01 10:47:08;;;;;;;18.30;12.20;;;;;;;13.73;81.95;98548.42;106712;1311;22958;-76
2022/11/01 10:50:16;;;;;;;18.10;12.30;;;;;;;13.75;81.59;98548.05;106483;1313;139248;-76
2022/11/01 10:53:06;;;;;;;19.70;12.50;;;;;;;13.81;81.48;98534.13;106423;1299;22881;-77
2022/11/01 10:55:51;;;;;;;18.50;12.10;;;;;;;13.98;81.63;98531.66;106184;1315;138919;-76
2022/11/01 10:58:40;;;;;;;15.90;10.70;;;;;;;14.14;81.16;98534.86;106419;1313;22176;-76
2022/11/01 11:01:11;;;;;;;16.70;11.70;;;;;;;14.30;80.69;98525.95;106369;1313;138045;-76
2022/11/01 11:03:40;;;;;;;15.30;10.80;;;;;;;14.43;80.60;98521.23;106309;1304;22886;-76
2022/11/01 11:06:12;;;;;;;13.90;9.60;;;;;;;14.55;79.84;98519.95;106178;1314;139025;-76
2022/11/01 11:08:42;;;;;;;13.70;10.00;;;;;;;14.62;79.29;98515.67;106547;1308;22119;-76
2022/11/01 11:11:54;;;;;;;18.80;10.70;;;;;;;14.66;78.50;98513.11;106335;1313;23211;-76
2022/11/01 11:14:23;;;;;;;14.10;10.50;;;;;;;14.73;78.12;98508.23;105755;1309;22303;-77
2022/11/01 11:16:57;;;;;;;17.10;11.30;;;;;;;14.80;78.35;98506.30;105855;1319;22492;-76
2022/11/01 11:19:37;;;;;;;19.00;13.40;;;;;;;14.87;77.89;98510.69;105843;1319;139179;-77
2022/11/01 11:22:07;;;;;;;18.80;14.90;;;;;;;14.96;78.19;98516.57;105632;1319;22256;-77
2022/11/01 11:24:44;;;;;;;22.30;13.70;;;;;;;15.05;78.68;98517.34;105491;1298;139596;-76
2022/11/01 11:27:22;;;;;;;19.20;11.80;;;;;;;15.14;77.96;98506.71;106027;1314;22327;-77
2022/11/01 11:29:53;;;;;;;23.70;13.00;;;;;;;15.22;77.80;98502.76;105832;1302;22429;-77
2022/11/01 11:32:39;;;;;;;18.10;13.20;;;;;;;15.31;77.65;98499.19;105579;1321;22268;-77
2022/11/01 11:35:27;;;;;;;17.20;11.50;;;;;;;15.40;77.63;98502.15;105754;1307;22368;-76